sensor_id;sensor_type;location;lat;lon;timestamp;pressure;altitude;pressure_sealevel;temperature;humidity
13732;BME280;6937;56.096;12.664;2023-07-31T00:01:06;97080.50;;;14.83;100.00
13732;BME280;6937;56.096;12.664;2023-07-31T00:03:31;97071.84;;;14.81;100.00
13732;BME280;6937;56.096;12.664;2023-07-31T00:05:56;97076.78;;;14.84;100.00
13732;BME280;6937;56.096;12.664;2023-07-31T00:08:22;97078.03;;;14.82;100.00
13732;BME280;6937;56.096;12.664;2023-07-31T00:10:51;97062.97;;;14.81;100.00
13732;BME280;6937;56.096;12.664;2023-07-31T00:13:16;97068.78;;;14.78;100.00
13732;BME280;6937;56.096;12.664;2023-07-31T00:15:42;97092.59;;;14.74;100.00
13732;BME280;6937;56.096;12.664;2023-07-31T00:18:07;97078.59;;;14.72;100.00
13732;BME280;6937;56.096;12.664;2023-07-31T00:20:32;97092.03;;;14.72;100.00
13732;BME280;6937;56.096;12.664;2023-07-31T00:22:58;97085.84;;;14.72;100.00
13732;BME280;6937;56.096;12.664;2023-07-31T00:25:23;97086.03;;;14.70;100.00
13732;BME280;6937;56.096;12.664;2023-07-31T00:27:49;97101.81;;;14.67;100.00
13732;BME280;6937;56.096;12.664;2023-07-31T00:30:14;97097.50;;;14.66;100.00
13732;BME280;6937;56.096;12.664;2023-07-31T00:32:40;97094.88;;;14.59;100.00
13732;BME280;6937;56.096;12.664;2023-07-31T00:35:05;97099.66;;;14.57;100.00
13732;BME280;6937;56.096;12.664;2023-07-31T00:37:31;97100.47;;;14.58;100.00
13732;BME280;6937;56.096;12.664;2023-07-31T00:39:56;97093.25;;;14.58;100.00
13732;BME280;6937;56.096;12.664;2023-07-31T00:42:22;97098.00;;;14.56;100.00
13732;BME280;6937;56.096;12.664;2023-07-31T00:44:47;97089.50;;;14.59;100.00
13732;BME280;6937;56.096;12.664;2023-07-31T00:47:12;97092.53;;;14.63;100.00
13732;BME280;6937;56.096;12.664;2023-07-31T00:49:38;97090.94;;;14.62;100.00
13732;BME280;6937;56.096;12.664;2023-07-31T00:52:04;97082.63;;;14.63;100.00
13732;BME280;6937;56.096;12.664;2023-07-31T00:54:29;97075.19;;;14.65;100.00
13732;BME280;6937;56.096;12.664;2023-07-31T00:56:55;97070.63;;;14.66;100.00
13732;BME280;6937;56.096;12.664;2023-07-31T00:59:21;97073.88;;;14.68;100.00
13732;BME280;6937;56.096;12.664;2023-07-31T01:01:46;97073.06;;;14.67;100.00
13732;BME280;6937;56.096;12.664;2023-07-31T01:04:12;97072.25;;;14.67;100.00
13732;BME280;6937;56.096;12.664;2023-07-31T01:06:46;97068.72;;;14.66;100.00
13732;BME280;6937;56.096;12.664;2023-07-31T01:11:58;97079.34;;;14.61;100.00
13732;BME280;6937;56.096;12.664;2023-07-31T01:14:25;97066.38;;;14.58;100.00
13732;BME280;6937;56.096;12.664;2023-07-31T01:16:50;97070.31;;;14.56;100.00
13732;BME280;6937;56.096;12.664;2023-07-31T01:19:20;97061.44;;;14.55;100.00
13732;BME280;6937;56.096;12.664;2023-07-31T01:28:20;97113.03;;;14.45;100.00
13732;BME280;6937;56.096;12.664;2023-07-31T01:30:47;97117.00;;;14.43;100.00
13732;BME280;6937;56.096;12.664;2023-07-31T01:33:15;97106.66;;;14.40;100.00
13732;BME280;6937;56.096;12.664;2023-07-31T01:35:44;97121.53;;;14.42;100.00
13732;BME280;6937;56.096;12.664;2023-07-31T01:38:10;97143.03;;;14.42;100.00
13732;BME280;6937;56.096;12.664;2023-07-31T01:40:35;97149.22;;;14.43;100.00
13732;BME280;6937;56.096;12.664;2023-07-31T01:43:00;97165.19;;;14.38;100.00
13732;BME280;6937;56.096;12.664;2023-07-31T01:45:26;97146.75;;;14.41;100.00
13732;BME280;6937;56.096;12.664;2023-07-31T01:47:52;97152.56;;;14.38;100.00
13732;BME280;6937;56.096;12.664;2023-07-31T01:50:17;97165.19;;;14.38;100.00
13732;BME280;6937;56.096;12.664;2023-07-31T01:52:43;97166.47;;;14.35;100.00
13732;BME280;6937;56.096;12.664;2023-07-31T01:55:08;97209.44;;;14.35;100.00
13732;BME280;6937;56.096;12.664;2023-07-31T01:57:34;97205.28;;;14.33;100.00
13732;BME280;6937;56.096;12.664;2023-07-31T01:59:59;97205.28;;;14.33;100.00
13732;BME280;6937;56.096;12.664;2023-07-31T02:02:24;97217.06;;;14.32;100.00
13732;BME280;6937;56.096;12.664;2023-07-31T02:04:50;97206.75;;;14.29;100.00
13732;BME280;6937;56.096;12.664;2023-07-31T02:07:15;97194.16;;;14.29;100.00
13732;BME280;6937;56.096;12.664;2023-07-31T02:09:41;97212.75;;;14.31;100.00
13732;BME280;6937;56.096;12.664;2023-07-31T02:12:06;97222.22;;;14.33;100.00
13732;BME280;6937;56.096;12.664;2023-07-31T02:14:34;97240.19;;;14.33;100.00
13732;BME280;6937;56.096;12.664;2023-07-31T02:16:59;97245.81;;;14.31;100.00
13732;BME280;6937;56.096;12.664;2023-07-31T02:19:25;97250.09;;;14.32;100.00
13732;BME280;6937;56.096;12.664;2023-07-31T02:21:50;97243.31;;;14.30;100.00
13732;BME280;6937;56.096;12.664;2023-07-31T02:24:16;97260.31;;;14.24;100.00
13732;BME280;6937;56.096;12.664;2023-07-31T02:26:41;97248.59;;;14.18;100.00
13732;BME280;6937;56.096;12.664;2023-07-31T02:29:08;97204.59;;;14.19;100.00
13732;BME280;6937;56.096;12.664;2023-07-31T02:31:33;97224.22;;;14.20;100.00
13732;BME280;6937;56.096;12.664;2023-07-31T02:33:59;97214.13;;;14.15;100.00
13732;BME280;6937;56.096;12.664;2023-07-31T02:36:24;97221.97;;;14.17;100.00
13732;BME280;6937;56.096;12.664;2023-07-31T02:38:50;97234.31;;;14.18;100.00
13732;BME280;6937;56.096;12.664;2023-07-31T02:41:15;97245.69;;;14.20;100.00
13732;BME280;6937;56.096;12.664;2023-07-31T02:43:40;97212.63;;;14.19;100.00
13732;BME280;6937;56.096;12.664;2023-07-31T02:46:06;97253.50;;;14.21;100.00
13732;BME280;6937;56.096;12.664;2023-07-31T02:48:31;97266.94;;;14.21;100.00
13732;BME280;6937;56.096;12.664;2023-07-31T02:50:57;97272.94;;;14.23;100.00
13732;BME280;6937;56.096;12.664;2023-07-31T02:53:22;97277.47;;;14.23;100.00
13732;BME280;6937;56.096;12.664;2023-07-31T02:55:48;97282.41;;;14.26;100.00
13732;BME280;6937;56.096;12.664;2023-07-31T02:58:13;97269.78;;;14.26;100.00
13732;BME280;6937;56.096;12.664;2023-07-31T03:00:45;97242.13;;;14.26;100.00
13732;BME280;6937;56.096;12.664;2023-07-31T03:03:10;97266.72;;;14.23;100.00
13732;BME280;6937;56.096;12.664;2023-07-31T03:05:36;97289.03;;;14.23;100.00
13732;BME280;6937;56.096;12.664;2023-07-31T03:08:02;97269.41;;;14.23;100.00
13732;BME280;6937;56.096;12.664;2023-07-31T03:10:27;97265.69;;;14.24;100.00
13732;BME280;6937;56.096;12.664;2023-07-31T03:12:53;97265.47;;;14.25;100.00
13732;BME280;6937;56.096;12.664;2023-07-31T03:15:18;97252.03;;;14.25;100.00
13732;BME280;6937;56.096;12.664;2023-07-31T03:17:43;97257.00;;;14.28;100.00
13732;BME280;6937;56.096;12.664;2023-07-31T03:20:09;97263.16;;;14.29;100.00
13732;BME280;6937;56.096;12.664;2023-07-31T03:22:35;97259.44;;;14.30;100.00
13732;BME280;6937;56.096;12.664;2023-07-31T03:25:04;97252.22;;;14.30;100.00
13732;BME280;6937;56.096;12.664;2023-07-31T03:27:29;97249.50;;;14.30;100.00
13732;BME280;6937;56.096;12.664;2023-07-31T03:29:55;97246.00;;;14.30;100.00
13732;BME280;6937;56.096;12.664;2023-07-31T03:32:20;97267.03;;;14.33;100.00
13732;BME280;6937;56.096;12.664;2023-07-31T03:34:46;97272.25;;;14.34;100.00
13732;BME280;6937;56.096;12.664;2023-07-31T03:37:11;97261.50;;;14.34;100.00
13732;BME280;6937;56.096;12.664;2023-07-31T03:39:37;97261.88;;;14.38;100.00
13732;BME280;6937;56.096;12.664;2023-07-31T03:42:03;97247.78;;;14.42;100.00
13732;BME280;6937;56.096;12.664;2023-07-31T03:44:28;97244.28;;;14.42;100.00
13732;BME280;6937;56.096;12.664;2023-07-31T03:46:54;97246.72;;;14.43;100.00
13732;BME280;6937;56.096;12.664;2023-07-31T03:49:20;97251.31;;;14.43;100.00
13732;BME280;6937;56.096;12.664;2023-07-31T03:51:45;97235.31;;;14.48;100.00
13732;BME280;6937;56.096;12.664;2023-07-31T03:54:10;97232.81;;;14.53;100.00
13732;BME280;6937;56.096;12.664;2023-07-31T03:56:36;97247.44;;;14.57;100.00
13732;BME280;6937;56.096;12.664;2023-07-31T03:59:03;97234.84;;;14.58;100.00
13732;BME280;6937;56.096;12.664;2023-07-31T04:01:29;97232.72;;;14.60;100.00
13732;BME280;6937;56.096;12.664;2023-07-31T04:03:54;97218.72;;;14.58;100.00
13732;BME280;6937;56.096;12.664;2023-07-31T04:06:20;97254.84;;;14.62;100.00
13732;BME280;6937;56.096;12.664;2023-07-31T04:08:45;97231.44;;;14.62;100.00
13732;BME280;6937;56.096;12.664;2023-07-31T04:11:11;97216.78;;;14.65;100.00
13732;BME280;6937;56.096;12.664;2023-07-31T04:13:37;97220.88;;;14.67;100.00
13732;BME280;6937;56.096;12.664;2023-07-31T04:16:03;97221.25;;;14.71;100.00
13732;BME280;6937;56.096;12.664;2023-07-31T04:18:29;97203.88;;;14.73;100.00
13732;BME280;6937;56.096;12.664;2023-07-31T04:20:56;97218.47;;;14.77;100.00
13732;BME280;6937;56.096;12.664;2023-07-31T04:23:24;97206.22;;;14.81;100.00
13732;BME280;6937;56.096;12.664;2023-07-31T04:25:49;97211.56;;;14.88;100.00
13732;BME280;6937;56.096;12.664;2023-07-31T04:28:15;97218.91;;;14.92;100.00
13732;BME280;6937;56.096;12.664;2023-07-31T04:30:40;97234.75;;;15.00;100.00
13732;BME280;6937;56.096;12.664;2023-07-31T04:33:05;97218.41;;;15.02;100.00
13732;BME280;6937;56.096;12.664;2023-07-31T04:35:31;97193.75;;;15.05;100.00
13732;BME280;6937;56.096;12.664;2023-07-31T04:37:56;97198.66;;;15.08;100.00
13732;BME280;6937;56.096;12.664;2023-07-31T04:40:22;97183.81;;;15.06;100.00
13732;BME280;6937;56.096;12.664;2023-07-31T04:42:48;97156.69;;;15.07;100.00
13732;BME280;6937;56.096;12.664;2023-07-31T04:45:14;97154.38;;;15.11;100.00
13732;BME280;6937;56.096;12.664;2023-07-31T04:47:41;97139.41;;;15.15;100.00
13732;BME280;6937;56.096;12.664;2023-07-31T04:50:07;97116.63;;;15.17;100.00
13732;BME280;6937;56.096;12.664;2023-07-31T04:52:33;97113.59;;;15.14;100.00
13732;BME280;6937;56.096;12.664;2023-07-31T04:54:58;97097.44;;;15.14;100.00
13732;BME280;6937;56.096;12.664;2023-07-31T04:57:24;97080.25;;;15.15;100.00
13732;BME280;6937;56.096;12.664;2023-07-31T04:59:49;97089.84;;;15.22;100.00
13732;BME280;6937;56.096;12.664;2023-07-31T05:02:15;97089.88;;;15.34;100.00
13732;BME280;6937;56.096;12.664;2023-07-31T05:04:40;97077.75;;;15.43;100.00
13732;BME280;6937;56.096;12.664;2023-07-31T05:07:06;97076.63;;;15.51;100.00
13732;BME280;6937;56.096;12.664;2023-07-31T05:09:31;97071.72;;;15.59;100.00
13732;BME280;6937;56.096;12.664;2023-07-31T05:11:57;97061.66;;;15.66;100.00
13732;BME280;6937;56.096;12.664;2023-07-31T05:14:23;97035.94;;;15.70;100.00
13732;BME280;6937;56.096;12.664;2023-07-31T05:16:48;97017.78;;;15.77;100.00
13732;BME280;6937;56.096;12.664;2023-07-31T05:19:14;96992.47;;;15.90;100.00
13732;BME280;6937;56.096;12.664;2023-07-31T05:21:39;96959.66;;;16.05;100.00
13732;BME280;6937;56.096;12.664;2023-07-31T05:24:05;96930.25;;;16.15;100.00
13732;BME280;6937;56.096;12.664;2023-07-31T05:26:30;96896.06;;;16.15;100.00
13732;BME280;6937;56.096;12.664;2023-07-31T05:28:56;96857.75;;;16.13;100.00
13732;BME280;6937;56.096;12.664;2023-07-31T05:31:21;96830.59;;;16.15;100.00
13732;BME280;6937;56.096;12.664;2023-07-31T05:33:47;96806.34;;;16.15;100.00
13732;BME280;6937;56.096;12.664;2023-07-31T05:36:15;96762.53;;;16.19;100.00
13732;BME280;6937;56.096;12.664;2023-07-31T05:38:40;96749.94;;;16.25;100.00
13732;BME280;6937;56.096;12.664;2023-07-31T05:41:06;96726.59;;;16.30;100.00
13732;BME280;6937;56.096;12.664;2023-07-31T05:43:31;96698.44;;;16.38;100.00
13732;BME280;6937;56.096;12.664;2023-07-31T05:45:57;96672.38;;;16.43;100.00
13732;BME280;6937;56.096;12.664;2023-07-31T05:48:22;96633.31;;;16.46;100.00
13732;BME280;6937;56.096;12.664;2023-07-31T05:50:48;96585.81;;;16.57;100.00
13732;BME280;6937;56.096;12.664;2023-07-31T05:53:13;96548.13;;;16.62;100.00
13732;BME280;6937;56.096;12.664;2023-07-31T05:55:38;96505.91;;;16.72;100.00
13732;BME280;6937;56.096;12.664;2023-07-31T05:58:04;96485.00;;;16.79;100.00
13732;BME280;6937;56.096;12.664;2023-07-31T06:00:29;96442.16;;;16.83;100.00
13732;BME280;6937;56.096;12.664;2023-07-31T06:02:55;96408.47;;;16.85;100.00
13732;BME280;6937;56.096;12.664;2023-07-31T06:05:20;96384.44;;;16.84;100.00
13732;BME280;6937;56.096;12.664;2023-07-31T06:07:46;96360.75;;;16.86;100.00
13732;BME280;6937;56.096;12.664;2023-07-31T06:10:11;96343.25;;;16.88;100.00
13732;BME280;6937;56.096;12.664;2023-07-31T06:12:37;96333.28;;;16.89;100.00
13732;BME280;6937;56.096;12.664;2023-07-31T06:15:03;96323.63;;;16.98;100.00
13732;BME280;6937;56.096;12.664;2023-07-31T06:17:29;96301.00;;;17.04;100.00
13732;BME280;6937;56.096;12.664;2023-07-31T06:19:56;96284.06;;;17.09;100.00
13732;BME280;6937;56.096;12.664;2023-07-31T06:22:21;96274.88;;;17.05;100.00
13732;BME280;6937;56.096;12.664;2023-07-31T06:24:47;96257.81;;;16.99;100.00
13732;BME280;6937;56.096;12.664;2023-07-31T06:27:12;96257.53;;;16.96;100.00
13732;BME280;6937;56.096;12.664;2023-07-31T06:29:37;96251.09;;;16.97;100.00
13732;BME280;6937;56.096;12.664;2023-07-31T06:32:03;96231.69;;;17.00;100.00
13732;BME280;6937;56.096;12.664;2023-07-31T06:34:29;96222.28;;;17.07;100.00
13732;BME280;6937;56.096;12.664;2023-07-31T06:36:55;96208.53;;;17.09;100.00
13732;BME280;6937;56.096;12.664;2023-07-31T06:39:21;96222.00;;;17.04;100.00
13732;BME280;6937;56.096;12.664;2023-07-31T06:41:46;96214.16;;;17.02;100.00
13732;BME280;6937;56.096;12.664;2023-07-31T06:44:12;96224.66;;;16.99;100.00
13732;BME280;6937;56.096;12.664;2023-07-31T06:46:37;96224.38;;;16.95;100.00
13732;BME280;6937;56.096;12.664;2023-07-31T06:49:02;96244.06;;;16.90;100.00
13732;BME280;6937;56.096;12.664;2023-07-31T06:51:28;96246.94;;;16.84;100.00
13732;BME280;6937;56.096;12.664;2023-07-31T06:53:53;96253.94;;;16.80;100.00
13732;BME280;6937;56.096;12.664;2023-07-31T06:56:20;96258.50;;;16.74;100.00
13732;BME280;6937;56.096;12.664;2023-07-31T06:58:46;96287.56;;;16.72;100.00
13732;BME280;6937;56.096;12.664;2023-07-31T07:01:11;96276.78;;;16.67;100.00
13732;BME280;6937;56.096;12.664;2023-07-31T07:03:37;96290.78;;;16.64;100.00
13732;BME280;6937;56.096;12.664;2023-07-31T07:06:02;96291.25;;;16.56;100.00
13732;BME280;6937;56.096;12.664;2023-07-31T07:08:28;96297.38;;;16.52;100.00
13732;BME280;6937;56.096;12.664;2023-07-31T07:10:54;96336.22;;;16.56;100.00
13732;BME280;6937;56.096;12.664;2023-07-31T07:13:19;96352.38;;;16.56;100.00
13732;BME280;6937;56.096;12.664;2023-07-31T07:15:48;96364.84;;;16.57;100.00
13732;BME280;6937;56.096;12.664;2023-07-31T07:18:14;96403.28;;;16.52;100.00
13732;BME280;6937;56.096;12.664;2023-07-31T07:20:40;96417.81;;;16.51;100.00
13732;BME280;6937;56.096;12.664;2023-07-31T07:23:06;96429.81;;;16.60;100.00
13732;BME280;6937;56.096;12.664;2023-07-31T07:25:31;96414.91;;;16.79;100.00
13732;BME280;6937;56.096;12.664;2023-07-31T07:27:57;96411.84;;;17.03;100.00
13732;BME280;6937;56.096;12.664;2023-07-31T07:30:23;96406.59;;;17.23;100.00
13732;BME280;6937;56.096;12.664;2023-07-31T07:32:51;96542.69;;;17.37;100.00
13732;BME280;6937;56.096;12.664;2023-07-31T07:35:17;96562.00;;;17.51;100.00
13732;BME280;6937;56.096;12.664;2023-07-31T07:37:43;96579.63;;;17.58;100.00
13732;BME280;6937;56.096;12.664;2023-07-31T07:40:08;96622.47;;;17.55;100.00
13732;BME280;6937;56.096;12.664;2023-07-31T07:42:34;96649.97;;;17.52;100.00
13732;BME280;6937;56.096;12.664;2023-07-31T07:44:59;96677.53;;;17.54;100.00
13732;BME280;6937;56.096;12.664;2023-07-31T07:47:25;96697.75;;;17.51;100.00
13732;BME280;6937;56.096;12.664;2023-07-31T07:49:50;96718.19;;;17.47;100.00
13732;BME280;6937;56.096;12.664;2023-07-31T07:52:16;96720.88;;;17.42;100.00
13732;BME280;6937;56.096;12.664;2023-07-31T07:54:41;96740.06;;;17.46;100.00
13732;BME280;6937;56.096;12.664;2023-07-31T07:57:07;96775.78;;;17.53;100.00
13732;BME280;6937;56.096;12.664;2023-07-31T07:59:32;96816.69;;;17.61;100.00
13732;BME280;6937;56.096;12.664;2023-07-31T08:01:58;96836.44;;;17.67;100.00
13732;BME280;6937;56.096;12.664;2023-07-31T08:04:23;96898.31;;;17.68;100.00
13732;BME280;6937;56.096;12.664;2023-07-31T08:06:49;96954.38;;;17.61;100.00
13732;BME280;6937;56.096;12.664;2023-07-31T08:09:14;96966.03;;;17.67;100.00
13732;BME280;6937;56.096;12.664;2023-07-31T08:11:40;97029.28;;;17.54;100.00
13732;BME280;6937;56.096;12.664;2023-07-31T08:14:05;97045.72;;;17.53;100.00
13732;BME280;6937;56.096;12.664;2023-07-31T08:16:31;97027.81;;;17.63;100.00
13732;BME280;6937;56.096;12.664;2023-07-31T08:18:56;96987.41;;;17.68;100.00
13732;BME280;6937;56.096;12.664;2023-07-31T08:21:22;96926.25;;;17.79;100.00
13732;BME280;6937;56.096;12.664;2023-07-31T08:23:48;96870.03;;;17.98;100.00
13732;BME280;6937;56.096;12.664;2023-07-31T08:26:18;96808.88;;;18.13;100.00
13732;BME280;6937;56.096;12.664;2023-07-31T08:28:43;96775.72;;;18.23;100.00
13732;BME280;6937;56.096;12.664;2023-07-31T08:31:09;96756.84;;;18.28;100.00
13732;BME280;6937;56.096;12.664;2023-07-31T08:33:35;96725.56;;;18.37;100.00
13732;BME280;6937;56.096;12.664;2023-07-31T08:36:01;96738.00;;;18.38;100.00
13732;BME280;6937;56.096;12.664;2023-07-31T08:38:27;96743.94;;;18.35;100.00
13732;BME280;6937;56.096;12.664;2023-07-31T08:40:54;96732.69;;;18.48;100.00
13732;BME280;6937;56.096;12.664;2023-07-31T08:43:23;96700.34;;;18.63;100.00
13732;BME280;6937;56.096;12.664;2023-07-31T08:45:50;96719.38;;;18.78;100.00
13732;BME280;6937;56.096;12.664;2023-07-31T08:48:17;96711.34;;;18.94;100.00
13732;BME280;6937;56.096;12.664;2023-07-31T08:50:43;96724.13;;;19.03;100.00
13732;BME280;6937;56.096;12.664;2023-07-31T08:53:08;96725.53;;;19.16;100.00
13732;BME280;6937;56.096;12.664;2023-07-31T08:55:35;96759.66;;;19.17;100.00
13732;BME280;6937;56.096;12.664;2023-07-31T08:58:03;96762.59;;;19.10;100.00
13732;BME280;6937;56.096;12.664;2023-07-31T09:00:32;96796.34;;;18.98;100.00
13732;BME280;6937;56.096;12.664;2023-07-31T09:03:02;96800.91;;;18.92;100.00
13732;BME280;6937;56.096;12.664;2023-07-31T09:05:29;96837.31;;;18.74;100.00
13732;BME280;6937;56.096;12.664;2023-07-31T09:07:55;96876.00;;;18.48;100.00
13732;BME280;6937;56.096;12.664;2023-07-31T09:10:21;96880.34;;;18.27;100.00
13732;BME280;6937;56.096;12.664;2023-07-31T09:12:47;96850.47;;;18.12;100.00
13732;BME280;6937;56.096;12.664;2023-07-31T09:15:13;96850.56;;;17.96;100.00
13732;BME280;6937;56.096;12.664;2023-07-31T09:17:39;96836.91;;;17.80;100.00
13732;BME280;6937;56.096;12.664;2023-07-31T09:20:16;96796.97;;;17.61;100.00
13732;BME280;6937;56.096;12.664;2023-07-31T09:22:43;96758.06;;;17.40;100.00
13732;BME280;6937;56.096;12.664;2023-07-31T09:25:21;96705.13;;;17.34;100.00
13732;BME280;6937;56.096;12.664;2023-07-31T09:30:16;96595.97;;;17.47;100.00
13732;BME280;6937;56.096;12.664;2023-07-31T09:32:44;96546.88;;;17.55;100.00
13732;BME280;6937;56.096;12.664;2023-07-31T09:35:21;96512.22;;;17.68;100.00
13732;BME280;6937;56.096;12.664;2023-07-31T09:37:51;96468.53;;;17.81;100.00
13732;BME280;6937;56.096;12.664;2023-07-31T09:40:27;96452.91;;;17.83;100.00
13732;BME280;6937;56.096;12.664;2023-07-31T09:43:16;96444.22;;;17.81;100.00
13732;BME280;6937;56.096;12.664;2023-07-31T09:45:43;96437.72;;;17.77;100.00
13732;BME280;6937;56.096;12.664;2023-07-31T09:48:17;96453.84;;;17.62;100.00
13732;BME280;6937;56.096;12.664;2023-07-31T09:50:47;96441.97;;;17.58;100.00
13732;BME280;6937;56.096;12.664;2023-07-31T09:53:13;96438.72;;;17.61;100.00
13732;BME280;6937;56.096;12.664;2023-07-31T09:55:40;96415.84;;;17.69;100.00
13732;BME280;6937;56.096;12.664;2023-07-31T09:58:10;96417.19;;;17.71;100.00
13732;BME280;6937;56.096;12.664;2023-07-31T10:00:36;96401.28;;;17.75;100.00
13732;BME280;6937;56.096;12.664;2023-07-31T10:03:07;96361.41;;;17.97;100.00
13732;BME280;6937;56.096;12.664;2023-07-31T10:05:38;96367.34;;;17.99;100.00
13732;BME280;6937;56.096;12.664;2023-07-31T10:08:06;96367.38;;;18.09;100.00
13732;BME280;6937;56.096;12.664;2023-07-31T10:10:32;96380.38;;;18.17;100.00
13732;BME280;6937;56.096;12.664;2023-07-31T10:13:01;96357.19;;;18.47;100.00
13732;BME280;6937;56.096;12.664;2023-07-31T10:15:28;96393.41;;;18.46;100.00
13732;BME280;6937;56.096;12.664;2023-07-31T10:17:55;96499.56;;;18.21;100.00
13732;BME280;6937;56.096;12.664;2023-07-31T10:20:21;96534.63;;;18.16;100.00
13732;BME280;6937;56.096;12.664;2023-07-31T10:22:47;96531.16;;;18.20;100.00
13732;BME280;6937;56.096;12.664;2023-07-31T10:25:15;96580.56;;;18.16;100.00
13732;BME280;6937;56.096;12.664;2023-07-31T10:27:42;96605.75;;;18.26;100.00
13732;BME280;6937;56.096;12.664;2023-07-31T10:30:11;96608.31;;;18.43;100.00
13732;BME280;6937;56.096;12.664;2023-07-31T10:32:39;96657.09;;;18.58;100.00
13732;BME280;6937;56.096;12.664;2023-07-31T10:35:07;96682.34;;;18.79;100.00
13732;BME280;6937;56.096;12.664;2023-07-31T10:37:40;96747.00;;;18.80;100.00
13732;BME280;6937;56.096;12.664;2023-07-31T10:40:44;96752.19;;;18.87;100.00
13732;BME280;6937;56.096;12.664;2023-07-31T10:43:03;96756.84;;;18.97;100.00
13732;BME280;6937;56.096;12.664;2023-07-31T10:48:16;96821.16;;;18.85;100.00
13732;BME280;6937;56.096;12.664;2023-07-31T10:50:50;96831.22;;;18.94;100.00
13732;BME280;6937;56.096;12.664;2023-07-31T10:53:31;96819.72;;;19.14;100.00
13732;BME280;6937;56.096;12.664;2023-07-31T10:56:04;96822.56;;;19.39;100.00
13732;BME280;6937;56.096;12.664;2023-07-31T10:58:30;96947.19;;;19.44;100.00
13732;BME280;6937;56.096;12.664;2023-07-31T11:01:01;97046.03;;;19.47;100.00
13732;BME280;6937;56.096;12.664;2023-07-31T11:03:48;97154.63;;;19.45;100.00
13732;BME280;6937;56.096;12.664;2023-07-31T11:06:15;97211.06;;;19.58;100.00
13732;BME280;6937;56.096;12.664;2023-07-31T11:08:45;97270.97;;;19.62;100.00
13732;BME280;6937;56.096;12.664;2023-07-31T11:11:16;97309.53;;;19.69;100.00
13732;BME280;6937;56.096;12.664;2023-07-31T11:16:19;97472.41;;;19.72;100.00
13732;BME280;6937;56.096;12.664;2023-07-31T11:18:46;97486.34;;;19.81;100.00
13732;BME280;6937;56.096;12.664;2023-07-31T11:23:39;97490.66;;;19.99;100.00
13732;BME280;6937;56.096;12.664;2023-07-31T11:26:06;97432.97;;;20.25;100.00
13732;BME280;6937;56.096;12.664;2023-07-31T11:28:33;97407.75;;;20.46;100.00
13732;BME280;6937;56.096;12.664;2023-07-31T11:30:59;97406.41;;;20.49;100.00
13732;BME280;6937;56.096;12.664;2023-07-31T11:33:25;97345.63;;;20.77;100.00
13732;BME280;6937;56.096;12.664;2023-07-31T11:35:50;97351.66;;;20.84;100.00
13732;BME280;6937;56.096;12.664;2023-07-31T11:40:52;97485.91;;;20.49;100.00
13732;BME280;6937;56.096;12.664;2023-07-31T11:43:19;97457.50;;;20.57;100.00
13732;BME280;6937;56.096;12.664;2023-07-31T11:45:50;97398.41;;;20.96;100.00
13732;BME280;6937;56.096;12.664;2023-07-31T11:48:23;97432.06;;;21.22;100.00
13732;BME280;6937;56.096;12.664;2023-07-31T11:50:50;97576.00;;;21.00;100.00
13732;BME280;6937;56.096;12.664;2023-07-31T11:53:21;97647.03;;;20.70;100.00
13732;BME280;6937;56.096;12.664;2023-07-31T11:55:50;97675.69;;;20.61;100.00
13732;BME280;6937;56.096;12.664;2023-07-31T11:58:17;97664.56;;;20.62;100.00
13732;BME280;6937;56.096;12.664;2023-07-31T12:00:44;97696.25;;;20.57;100.00
13732;BME280;6937;56.096;12.664;2023-07-31T12:03:10;97717.31;;;20.33;100.00
13732;BME280;6937;56.096;12.664;2023-07-31T12:05:37;97728.22;;;20.21;100.00
13732;BME280;6937;56.096;12.664;2023-07-31T12:08:09;97731.00;;;20.26;100.00
13732;BME280;6937;56.096;12.664;2023-07-31T12:10:34;97775.06;;;20.17;100.00
13732;BME280;6937;56.096;12.664;2023-07-31T12:13:11;97719.09;;;20.44;100.00
13732;BME280;6937;56.096;12.664;2023-07-31T12:15:43;97667.75;;;20.76;100.00
13732;BME280;6937;56.096;12.664;2023-07-31T12:18:15;97663.00;;;20.66;100.00
13732;BME280;6937;56.096;12.664;2023-07-31T12:20:45;97700.53;;;20.53;100.00
13732;BME280;6937;56.096;12.664;2023-07-31T12:23:16;97721.78;;;20.39;100.00
13732;BME280;6937;56.096;12.664;2023-07-31T12:25:42;97734.88;;;20.47;100.00
13732;BME280;6937;56.096;12.664;2023-07-31T12:28:08;97731.84;;;20.60;100.00
13732;BME280;6937;56.096;12.664;2023-07-31T12:30:37;97773.00;;;20.74;100.00
13732;BME280;6937;56.096;12.664;2023-07-31T12:33:14;97784.53;;;20.81;100.00
13732;BME280;6937;56.096;12.664;2023-07-31T12:35:46;97827.13;;;20.97;100.00
13732;BME280;6937;56.096;12.664;2023-07-31T12:38:13;97899.28;;;21.10;100.00
13732;BME280;6937;56.096;12.664;2023-07-31T12:40:41;97956.63;;;20.97;100.00
13732;BME280;6937;56.096;12.664;2023-07-31T12:43:07;97982.44;;;21.28;100.00
13732;BME280;6937;56.096;12.664;2023-07-31T12:45:34;98069.53;;;21.09;100.00
13732;BME280;6937;56.096;12.664;2023-07-31T12:48:00;98068.03;;;21.30;100.00
13732;BME280;6937;56.096;12.664;2023-07-31T12:50:26;98083.31;;;21.48;100.00
13732;BME280;6937;56.096;12.664;2023-07-31T12:52:53;98127.19;;;21.40;100.00
13732;BME280;6937;56.096;12.664;2023-07-31T12:55:19;98208.28;;;21.19;100.00
13732;BME280;6937;56.096;12.664;2023-07-31T12:57:45;98253.28;;;20.92;100.00
13732;BME280;6937;56.096;12.664;2023-07-31T13:00:11;98303.94;;;20.52;100.00
13732;BME280;6937;56.096;12.664;2023-07-31T13:02:36;98287.44;;;20.65;100.00
13732;BME280;6937;56.096;12.664;2023-07-31T13:05:02;98285.44;;;20.72;100.00
13732;BME280;6937;56.096;12.664;2023-07-31T13:07:27;98292.25;;;20.98;100.00
13732;BME280;6937;56.096;12.664;2023-07-31T13:09:53;98293.19;;;21.27;100.00